createdAt,value
2019-04-11T00:00:11.113Z,63.70
2019-04-11T00:02:41.393Z,63.70
2019-04-11T00:05:12.466Z,64.10
2019-04-11T00:07:42.801Z,64.00
2019-04-11T00:10:14.402Z,64.20
2019-04-11T00:12:44.474Z,64.50
2019-04-11T00:15:14.527Z,65.50
2019-04-11T00:17:44.528Z,65.30
2019-04-11T00:20:14.496Z,66.00
2019-04-11T00:22:44.509Z,66.40
2019-04-11T00:25:15.593Z,65.80
2019-04-11T00:27:45.751Z,65.70
2019-04-11T00:30:15.790Z,65.50
2019-04-11T00:32:45.769Z,65.20
2019-04-11T00:35:15.729Z,65.30
2019-04-11T00:37:45.788Z,64.80
2019-04-11T00:40:15.756Z,64.60
2019-04-11T00:42:47.046Z,64.80
2019-04-11T00:45:17.185Z,64.90
2019-04-11T00:47:47.181Z,65.50
2019-04-11T00:50:17.146Z,66.50
2019-04-11T00:52:47.599Z,65.70
2019-04-11T00:55:17.692Z,65.80
2019-04-11T00:57:47.685Z,66.10
2019-04-11T01:00:18.651Z,66.20
2019-04-11T01:02:49.588Z,66.30
2019-04-11T01:05:19.684Z,66.20
2019-04-11T01:07:49.674Z,66.70
2019-04-11T01:10:20.335Z,66.60
2019-04-11T01:12:51.284Z,66.80
2019-04-11T01:15:23.794Z,67.00
2019-04-11T01:17:53.906Z,66.90
2019-04-11T01:20:23.927Z,66.30
2019-04-11T01:22:54.257Z,65.90
2019-04-11T01:25:24.443Z,66.30
2019-04-11T01:27:54.486Z,66.40
2019-04-11T01:30:30.639Z,66.70
2019-04-11T01:33:00.892Z,67.10
2019-04-11T01:35:31.091Z,67.50
2019-04-11T01:38:01.233Z,67.30
2019-04-11T01:40:31.906Z,68.50
2019-04-11T01:43:02.111Z,70.40
2019-04-11T01:45:32.074Z,71.10
2019-04-11T01:48:12.753Z,71.90
2019-04-11T01:50:43.283Z,73.10
2019-04-11T01:53:13.394Z,73.50
2019-04-11T01:55:43.386Z,73.90
2019-04-11T01:58:14.229Z,75.00
2019-04-11T02:01:06.521Z,75.00
2019-04-11T02:04:00.371Z,75.00
2019-04-11T02:06:30.414Z,75.00
2019-04-11T02:09:00.391Z,74.90
2019-04-11T02:11:31.755Z,75.60
2019-04-11T02:14:10.451Z,75.70
2019-04-11T02:16:34.797Z,76.50
2019-04-11T02:19:04.981Z,75.10
2019-04-11T02:21:35.915Z,73.20
2019-04-11T02:24:27.990Z,72.80
2019-04-11T02:27:14.771Z,72.50
2019-04-11T02:29:46.754Z,70.10
2019-04-11T02:32:18.549Z,69.10
2019-04-11T02:34:50.434Z,69.70
2019-04-11T02:37:21.802Z,70.20
2019-04-11T02:39:53.527Z,71.30
2019-04-11T02:42:25.407Z,72.60
2019-04-11T02:45:11.468Z,74.40
2019-04-11T02:47:31.927Z,76.00
2019-04-11T02:49:59.208Z,76.40
2019-04-11T02:52:29.456Z,76.30
2019-04-11T02:55:00.708Z,76.20
2019-04-11T02:57:32.236Z,76.40
2019-04-11T03:00:04.252Z,76.10
2019-04-11T03:02:34.704Z,75.90
2019-04-11T03:05:06.970Z,76.20
2019-04-11T03:07:38.079Z,76.70
2019-04-11T03:10:11.345Z,76.50
2019-04-11T03:12:40.515Z,75.90
2019-04-11T03:15:27.157Z,75.30
2019-04-11T03:17:45.193Z,75.60
2019-04-11T03:20:25.808Z,76.20
2019-04-11T03:22:53.064Z,76.40
2019-04-11T03:25:18.447Z,75.70
2019-04-11T03:27:49.475Z,75.40
2019-04-11T03:30:30.251Z,74.10
2019-04-11T03:38:21.341Z,72.20
2019-04-11T03:40:48.034Z,72.10
2019-04-11T03:43:10.162Z,73.20
2019-04-11T03:45:49.645Z,73.60
2019-04-11T03:48:18.130Z,73.70
2019-04-11T03:50:37.122Z,73.50
2019-04-11T03:53:09.305Z,72.90
2019-04-11T03:55:39.079Z,73.30
2019-04-11T03:58:09.230Z,72.90
2019-04-11T04:00:43.143Z,73.10
2019-04-11T04:03:11.305Z,73.00
2019-04-11T04:05:44.427Z,73.00
2019-04-11T04:08:14.663Z,72.80
2019-04-11T04:11:12.159Z,72.90
2019-04-11T04:13:47.809Z,72.80
2019-04-11T04:16:47.825Z,72.20
2019-04-11T04:19:32.565Z,72.70
2019-04-11T04:22:07.391Z,70.30
2019-04-11T04:24:40.449Z,70.10
2019-04-11T04:27:10.307Z,69.40
2019-04-11T04:29:41.377Z,68.90
2019-04-11T04:32:12.127Z,69.30
2019-04-11T04:34:44.356Z,70.50
2019-04-11T04:37:16.191Z,70.00
2019-04-11T04:39:48.101Z,70.60
2019-04-11T04:42:25.006Z,70.00
2019-04-11T04:44:51.022Z,70.70
2019-04-11T04:47:30.234Z,70.30
2019-04-11T04:49:54.213Z,70.00
2019-04-11T04:52:25.210Z,70.60
2019-04-11T04:54:57.745Z,70.10
2019-04-11T04:57:29.714Z,70.00
2019-04-11T05:00:00.153Z,69.00
2019-04-11T05:02:35.561Z,68.20
2019-04-11T05:05:07.233Z,67.40
2019-04-11T05:07:40.163Z,67.00
2019-04-11T05:10:09.106Z,65.90
2019-04-11T05:12:39.217Z,65.50
2019-04-11T05:15:10.014Z,65.30
2019-04-11T05:17:41.800Z,65.10
2019-04-11T05:20:12.001Z,65.10
2019-04-11T05:22:42.082Z,64.20
2019-04-11T05:25:12.601Z,64.40
2019-04-11T05:27:42.697Z,63.50
2019-04-11T05:30:12.685Z,61.10
2019-04-11T05:32:42.674Z,58.40
2019-04-11T05:35:12.637Z,55.70
2019-04-11T05:37:42.967Z,52.30
2019-04-11T05:40:13.218Z,50.90
2019-04-11T05:42:43.329Z,48.90
2019-04-11T05:45:18.238Z,47.60
2019-04-11T05:47:46.156Z,46.40
2019-04-11T05:50:26.475Z,45.00
2019-04-11T05:53:00.049Z,45.20
2019-04-11T05:55:32.115Z,45.00
2019-04-11T05:58:05.903Z,44.30
2019-04-11T06:00:50.068Z,44.80
2019-04-11T06:03:20.066Z,44.50
2019-04-11T06:05:56.348Z,42.50
2019-04-11T06:08:28.537Z,40.20
2019-04-11T06:11:09.547Z,39.50
2019-04-11T06:13:44.692Z,39.90
2019-04-11T06:16:14.738Z,40.20
2019-04-11T06:19:04.676Z,39.40
2019-04-11T06:21:42.266Z,38.80
2019-04-11T06:24:48.228Z,38.50
2019-04-11T06:27:31.324Z,38.10
2019-04-11T06:30:21.038Z,39.20
2019-04-11T06:33:13.201Z,38.90
2019-04-11T06:35:54.482Z,38.90
2019-04-11T06:38:58.992Z,39.20
2019-04-11T06:41:47.190Z,39.20
2019-04-11T06:44:32.044Z,38.30
2019-04-11T06:47:14.008Z,38.20
2019-04-11T06:49:51.497Z,38.90
2019-04-11T06:52:34.879Z,38.60
2019-04-11T06:55:26.898Z,38.00
2019-04-11T06:58:02.706Z,37.30
2019-04-11T07:00:33.613Z,37.80
2019-04-11T07:03:04.103Z,38.40
2019-04-11T07:05:36.222Z,39.10
2019-04-11T07:08:07.565Z,38.20
2019-04-11T07:10:46.737Z,38.50
2019-04-11T07:13:33.669Z,38.20
2019-04-11T07:16:04.792Z,37.70
2019-04-11T07:18:57.022Z,36.50
2019-04-11T07:21:33.282Z,35.60
2019-04-11T07:24:25.340Z,35.40
2019-04-11T07:27:07.468Z,36.20
2019-04-11T07:29:58.513Z,35.30
2019-04-11T07:32:29.926Z,35.20
2019-04-11T07:35:17.729Z,34.40
2019-04-11T07:37:49.503Z,34.00
2019-04-11T07:40:58.756Z,33.90
2019-04-11T07:43:31.508Z,34.60
2019-04-11T07:46:25.194Z,34.70
2019-04-11T07:49:05.934Z,35.00
2019-04-11T07:51:49.094Z,34.80
2019-04-11T07:54:20.847Z,34.90
2019-04-11T07:57:06.939Z,35.20
2019-04-11T07:59:53.469Z,35.50
2019-04-11T08:02:41.268Z,34.60
2019-04-11T08:05:30.146Z,33.90
2019-04-11T08:08:17.870Z,34.20
2019-04-11T08:10:58.121Z,34.50
2019-04-11T08:13:32.624Z,33.40
2019-04-11T08:16:20.448Z,33.70
2019-04-11T08:19:09.717Z,33.70
2019-04-11T08:22:04.914Z,32.90
2019-04-11T08:24:54.049Z,32.30
2019-04-11T08:27:29.428Z,33.60
2019-04-11T08:30:00.372Z,33.00
2019-04-11T08:32:56.577Z,32.20
2019-04-11T08:35:53.673Z,32.00
2019-04-11T08:38:28.917Z,32.10
2019-04-11T08:41:33.919Z,32.10
2019-04-11T08:44:09.834Z,32.30
2019-04-11T08:46:42.738Z,31.80
2019-04-11T08:49:33.203Z,32.10
2019-04-11T08:52:07.723Z,31.90
2019-04-11T08:54:55.758Z,31.10
2019-04-11T08:57:51.840Z,31.90
2019-04-11T09:00:44.847Z,31.80
2019-04-11T09:03:59.256Z,31.00
2019-04-11T09:06:24.891Z,31.20
2019-04-11T09:09:17.088Z,30.90
2019-04-11T09:11:56.162Z,31.70
2019-04-11T09:15:00.613Z,31.30
2019-04-11T09:17:38.665Z,31.80
2019-04-11T09:20:29.768Z,31.50
2019-04-11T09:23:05.849Z,32.10
2019-04-11T09:26:01.581Z,30.60
2019-04-11T09:28:46.874Z,30.10
2019-04-11T09:31:42.223Z,31.10
2019-04-11T09:34:30.880Z,31.40
2019-04-11T09:37:22.604Z,31.10
2019-04-11T09:40:26.093Z,31.20
2019-04-11T09:43:11.633Z,31.00
2019-04-11T09:46:20.041Z,30.30
2019-04-11T09:49:24.036Z,31.50
2019-04-11T09:52:06.051Z,31.10
2019-04-11T09:54:55.441Z,32.40
2019-04-11T09:57:34.521Z,31.60
2019-04-11T10:00:26.391Z,31.10
2019-04-11T10:03:03.153Z,30.60
2019-04-11T10:05:48.298Z,30.20
2019-04-11T10:08:39.444Z,30.20
2019-04-11T10:11:34.800Z,30.00
2019-04-11T10:14:07.356Z,30.30
2019-04-11T10:17:06.686Z,30.00
2019-04-11T10:19:48.671Z,30.00
2019-04-11T10:22:29.802Z,31.10
2019-04-11T10:25:28.843Z,30.50
2019-04-11T10:28:30.370Z,30.90
2019-04-11T10:31:04.545Z,32.20
2019-04-11T10:33:55.441Z,33.70
2019-04-11T10:36:31.430Z,33.40
2019-04-11T10:39:18.179Z,32.80
2019-04-11T10:41:50.646Z,33.40
2019-04-11T10:44:25.960Z,32.10
2019-04-11T10:47:01.871Z,32.70
2019-04-11T10:49:50.555Z,32.70
2019-04-11T10:52:29.201Z,32.30
2019-04-11T10:55:07.910Z,33.20
2019-04-11T10:57:42.958Z,32.80
2019-04-11T11:00:19.513Z,34.10
2019-04-11T11:03:04.401Z,34.30
2019-04-11T11:05:35.317Z,34.80
2019-04-11T11:08:11.905Z,35.00
2019-04-11T11:10:41.924Z,35.10
2019-04-11T11:13:23.653Z,35.50
2019-04-11T11:15:57.971Z,35.80
2019-04-11T11:19:19.443Z,34.00
2019-04-11T11:21:30.566Z,34.40
2019-04-11T11:24:21.851Z,34.20
2019-04-11T11:26:55.569Z,34.10
2019-04-11T11:29:47.491Z,34.80
2019-04-11T11:32:25.272Z,34.80
2019-04-11T11:35:25.120Z,34.40
2019-04-11T11:37:57.519Z,34.80
2019-04-11T11:40:50.083Z,35.40
2019-04-11T11:43:25.363Z,34.20
2019-04-11T11:46:26.674Z,32.90
2019-04-11T11:49:04.394Z,33.50
2019-04-11T11:51:39.405Z,33.40
2019-04-11T11:54:15.624Z,33.60
2019-04-11T11:56:47.374Z,32.80
2019-04-11T11:59:52.384Z,32.90
2019-04-11T12:02:36.898Z,31.70
2019-04-11T12:05:18.524Z,32.40
2019-04-11T12:07:55.891Z,32.10
2019-04-11T12:10:47.066Z,32.30
2019-04-11T12:13:45.463Z,32.20
2019-04-11T12:16:34.734Z,32.50
2019-04-11T12:19:24.854Z,31.90
2019-04-11T12:21:56.422Z,32.30
2019-04-11T12:24:44.994Z,33.10
2019-04-11T12:27:26.817Z,32.30
2019-04-11T12:30:20.976Z,31.50
2019-04-11T12:33:07.363Z,32.20
2019-04-11T12:35:47.071Z,32.30
2019-04-11T12:38:24.665Z,31.90
2019-04-11T12:41:09.671Z,32.60
2019-04-11T12:43:53.440Z,32.30
2019-04-11T12:46:41.273Z,32.60
2019-04-11T12:49:25.866Z,32.80
2019-04-11T12:52:14.373Z,33.10
2019-04-11T12:54:45.051Z,33.00
2019-04-11T12:57:32.904Z,31.80
2019-04-11T13:00:13.142Z,32.40
2019-04-11T13:03:02.341Z,32.50
2019-04-11T13:05:32.530Z,32.30
2019-04-11T13:08:30.785Z,32.50
2019-04-11T13:11:00.760Z,31.80
2019-04-11T13:13:39.257Z,32.30
2019-04-11T13:16:14.395Z,32.00
2019-04-11T13:19:03.336Z,31.80
2019-04-11T13:21:53.083Z,31.90
2019-04-11T13:24:57.298Z,31.90
2019-04-11T13:27:34.561Z,31.70
2019-04-11T13:30:23.186Z,32.00
2019-04-11T13:33:05.539Z,31.00
2019-04-11T13:35:58.838Z,32.20
2019-04-11T13:38:53.807Z,31.90
2019-04-11T13:41:41.570Z,32.60
2019-04-11T13:44:20.732Z,31.30
2019-04-11T13:47:09.629Z,33.70
2019-04-11T13:49:44.826Z,31.80
2019-04-11T13:52:33.847Z,32.20
2019-04-11T13:55:28.671Z,32.20
2019-04-11T13:58:17.652Z,31.80
2019-04-11T14:00:49.452Z,32.00
2019-04-11T14:03:44.703Z,31.90
2019-04-11T14:06:34.731Z,32.40
2019-04-11T14:09:39.787Z,32.90
2019-04-11T14:12:12.955Z,32.70
2019-04-11T14:15:05.945Z,32.30
2019-04-11T14:17:56.042Z,32.90
2019-04-11T14:20:32.224Z,31.30
2019-04-11T14:23:24.261Z,31.90
2019-04-11T14:26:12.116Z,32.30
2019-04-11T14:28:44.962Z,31.30
2019-04-11T14:31:34.454Z,32.10
2019-04-11T14:34:22.439Z,32.20
2019-04-11T14:37:08.597Z,31.00
2019-04-11T14:39:40.932Z,31.70
2019-04-11T14:42:30.257Z,32.60
2019-04-11T14:45:00.310Z,32.00
2019-04-11T14:47:39.182Z,31.70
2019-04-11T14:50:11.218Z,31.70
2019-04-11T14:52:58.885Z,32.50
2019-04-11T14:55:28.879Z,32.60
2019-04-11T14:58:17.817Z,33.10
2019-04-11T15:00:47.990Z,32.40
2019-04-11T15:03:49.206Z,33.20
2019-04-11T15:06:39.064Z,33.40
2019-04-11T15:09:33.826Z,33.90
2019-04-11T15:12:12.802Z,34.10
2019-04-11T15:15:19.259Z,33.90
2019-04-11T15:17:50.718Z,33.60
2019-04-11T15:20:54.390Z,33.40
2019-04-11T15:23:37.497Z,33.70
2019-04-11T15:26:25.073Z,33.60
2019-04-11T15:28:58.638Z,32.80
2019-04-11T15:31:48.497Z,32.80
2019-04-11T15:34:25.297Z,33.70
2019-04-11T15:37:25.863Z,33.40
2019-04-11T15:40:12.699Z,33.00
2019-04-11T15:43:01.537Z,33.30
2019-04-11T15:45:53.380Z,33.60
2019-04-11T15:48:42.305Z,33.90
2019-04-11T15:51:35.125Z,34.10
2019-04-11T15:54:27.361Z,33.80
2019-04-11T15:57:07.276Z,33.90
2019-04-11T15:59:56.194Z,34.10
2019-04-11T16:02:45.136Z,34.90
2019-04-11T16:05:49.496Z,34.80
2019-04-11T16:08:43.469Z,34.70
2019-04-11T16:11:34.273Z,35.60
2019-04-11T16:14:13.830Z,34.90
2019-04-11T16:16:59.013Z,34.50
2019-04-11T16:19:54.149Z,34.40
2019-04-11T16:22:43.388Z,34.40
2019-04-11T16:25:15.557Z,34.70
2019-04-11T16:28:08.154Z,34.60
2019-04-11T16:30:44.447Z,34.70
2019-04-11T16:33:36.149Z,34.90
2019-04-11T16:36:16.146Z,35.30
2019-04-11T16:39:14.190Z,35.20
2019-04-11T16:42:01.643Z,34.40
2019-04-11T16:45:00.118Z,36.10
2019-04-11T16:47:47.773Z,35.70
2019-04-11T16:50:17.866Z,36.40
2019-04-11T16:52:47.841Z,35.90
2019-04-11T16:55:17.833Z,35.80
2019-04-11T16:57:48.108Z,36.10
2019-04-11T17:00:20.568Z,36.80
2019-04-11T17:02:54.666Z,37.00
2019-04-11T17:05:24.076Z,37.30
2019-04-11T17:08:16.071Z,36.50
2019-04-11T17:11:07.856Z,36.40
2019-04-11T17:13:37.978Z,35.80
2019-04-11T17:16:11.485Z,35.10
2019-04-11T17:18:46.129Z,35.60
2019-04-11T17:21:16.192Z,35.70
2019-04-11T17:23:47.235Z,35.60
2019-04-11T17:26:17.829Z,36.00
2019-04-11T17:28:47.865Z,36.70
2019-04-11T17:31:18.176Z,37.10
2019-04-11T17:33:48.150Z,37.10
2019-04-11T17:36:18.137Z,37.60
2019-04-11T17:38:48.137Z,37.80
2019-04-11T17:41:18.124Z,37.90
2019-04-11T17:43:51.511Z,37.90
2019-04-11T17:46:19.869Z,38.00
2019-04-11T17:48:50.543Z,38.60
2019-04-11T17:51:21.729Z,38.60
2019-04-11T17:53:54.689Z,38.60
2019-04-11T17:56:25.495Z,38.90
2019-04-11T17:58:57.904Z,38.90
2019-04-11T18:01:26.950Z,38.30
2019-04-11T18:03:56.944Z,38.60
2019-04-11T18:06:26.897Z,38.60
2019-04-11T18:08:56.873Z,38.70
2019-04-11T18:11:27.013Z,38.80
2019-04-11T18:14:00.692Z,39.00
2019-04-11T18:16:31.639Z,40.00
2019-04-11T18:19:05.874Z,39.90
2019-04-11T18:21:34.874Z,40.40
2019-04-11T18:24:05.781Z,40.40
2019-04-11T18:26:35.769Z,40.60
2019-04-11T18:29:05.769Z,41.00
2019-04-11T18:31:35.893Z,41.00
2019-04-11T18:34:05.874Z,40.90
2019-04-11T18:36:37.358Z,40.80
2019-04-11T18:39:08.201Z,41.30
2019-04-11T18:41:38.835Z,41.00
2019-04-11T18:44:08.832Z,41.50
2019-04-11T18:46:39.990Z,41.80
2019-04-11T18:49:10.034Z,41.80
2019-04-11T18:51:40.126Z,41.80
2019-04-11T18:54:10.121Z,42.00
2019-04-11T18:56:40.081Z,42.70
2019-04-11T18:59:10.065Z,42.30
2019-04-11T19:01:40.162Z,42.20
2019-04-11T19:04:12.136Z,42.50
2019-04-11T19:06:43.035Z,42.20
2019-04-11T19:09:15.782Z,42.60
2019-04-11T19:11:46.249Z,43.10
2019-04-11T19:14:17.098Z,42.80
2019-04-11T19:16:47.094Z,42.80
2019-04-11T19:19:18.514Z,43.10
2019-04-11T19:21:51.051Z,43.10
2019-04-11T19:24:20.505Z,43.40
2019-04-11T19:26:50.485Z,43.70
2019-04-11T19:29:24.831Z,43.70
2019-04-11T19:31:52.197Z,44.00
2019-04-11T19:34:22.253Z,44.50
2019-04-11T19:36:52.227Z,44.70
2019-04-11T19:39:23.321Z,45.50
2019-04-11T19:41:53.499Z,45.50
2019-04-11T19:44:23.503Z,45.80
2019-04-11T19:46:53.545Z,45.50
2019-04-11T19:49:23.553Z,45.00
2019-04-11T19:51:53.549Z,45.00
2019-04-11T19:54:23.529Z,45.20
2019-04-11T19:57:01.492Z,45.20
2019-04-11T19:59:31.485Z,45.40
2019-04-11T20:02:01.469Z,45.80
2019-04-11T20:04:32.615Z,45.70
2019-04-11T20:07:02.585Z,45.80
2019-04-11T20:09:32.577Z,46.00
2019-04-11T20:12:02.541Z,46.30
2019-04-11T20:14:34.868Z,46.50
2019-04-11T20:17:04.430Z,47.80
2019-04-11T20:19:34.433Z,46.70
2019-04-11T20:22:08.226Z,46.70
2019-04-11T20:24:36.345Z,46.90
2019-04-11T20:27:06.301Z,47.10
2019-04-11T20:29:36.386Z,47.40
2019-04-11T20:32:06.394Z,47.90
2019-04-11T20:34:38.519Z,48.20
2019-04-11T20:37:12.510Z,48.10
2019-04-11T20:39:39.892Z,48.40
2019-04-11T20:42:09.888Z,48.60
2019-04-11T20:44:39.873Z,49.10
2019-04-11T20:47:09.841Z,48.70
2019-04-11T20:49:48.452Z,48.60
2019-04-11T20:52:18.424Z,48.40
2019-04-11T20:54:48.400Z,47.90
2019-04-11T20:57:25.575Z,47.90
2019-04-11T20:59:50.080Z,47.90
2019-04-11T21:02:20.057Z,48.40
2019-04-11T21:04:50.049Z,48.30
2019-04-11T21:07:20.614Z,48.40
2019-04-11T21:09:51.806Z,48.50
2019-04-11T21:12:21.849Z,48.70
2019-04-11T21:14:52.085Z,48.70
2019-04-11T21:17:22.053Z,48.50
2019-04-11T21:19:53.340Z,48.50
2019-04-11T21:22:24.728Z,48.80
2019-04-11T21:24:54.873Z,49.20
2019-04-11T21:27:28.565Z,49.40
2019-04-11T21:29:59.710Z,49.30
2019-04-11T21:32:29.029Z,49.40
2019-04-11T21:35:02.120Z,49.40
2019-04-11T21:37:31.623Z,49.40
2019-04-11T21:40:02.486Z,49.80
2019-04-11T21:42:35.895Z,49.60
2019-04-11T21:45:06.155Z,49.70
2019-04-11T21:47:37.338Z,49.70
2019-04-11T21:50:09.388Z,49.80
2019-04-11T21:52:43.353Z,50.20
2019-04-11T21:55:15.228Z,50.10
2019-04-11T21:57:48.331Z,50.00
2019-04-11T22:00:22.176Z,50.20
2019-04-11T22:02:51.927Z,50.20
2019-04-11T22:05:23.517Z,50.20
2019-04-11T22:07:53.508Z,50.20
2019-04-11T22:10:23.468Z,50.30
2019-04-11T22:12:53.465Z,50.20
2019-04-11T22:15:23.720Z,49.90
2019-04-11T22:18:05.644Z,50.20
2019-04-11T22:20:56.309Z,50.10
2019-04-11T22:23:26.298Z,50.60
2019-04-11T22:25:56.269Z,50.80
2019-04-11T22:28:27.090Z,50.30
2019-04-11T22:30:57.357Z,50.40
2019-04-11T22:33:31.841Z,50.40
2019-04-11T22:36:01.805Z,50.60
2019-04-11T22:38:31.785Z,50.80
2019-04-11T22:41:02.580Z,50.90
2019-04-11T22:43:32.822Z,50.50
2019-04-11T22:46:02.865Z,51.00
2019-04-11T22:48:32.849Z,51.00
2019-04-11T22:51:02.805Z,50.90
2019-04-11T22:53:32.781Z,51.40
2019-04-11T22:56:02.754Z,51.00
2019-04-11T22:58:32.725Z,51.40
2019-04-11T23:01:02.725Z,51.20
2019-04-11T23:03:47.566Z,51.20
2019-04-11T23:06:17.799Z,51.40
2019-04-11T23:08:48.983Z,51.50
2019-04-11T23:11:19.620Z,51.50
2019-04-11T23:13:49.585Z,51.40
2019-04-11T23:16:19.569Z,51.30
2019-04-11T23:18:49.531Z,51.40
2019-04-11T23:21:19.531Z,51.40
2019-04-11T23:23:49.483Z,51.60
2019-04-11T23:26:19.522Z,51.40
2019-04-11T23:28:49.588Z,51.60
2019-04-11T23:31:20.336Z,51.60
2019-04-11T23:33:52.013Z,51.50
2019-04-11T23:36:41.782Z,51.40
2019-04-11T23:39:12.919Z,51.70
2019-04-11T23:41:43.064Z,51.80
2019-04-11T23:44:13.152Z,51.80
2019-04-11T23:46:43.248Z,51.80
2019-04-11T23:49:13.243Z,52.00
2019-04-11T23:51:43.263Z,51.80
2019-04-11T23:54:22.712Z,51.80
2019-04-11T23:56:45.023Z,51.90
2019-04-11T23:59:15.006Z,52.20
